WXM80 ListenWXM80 Stop

You find our weather info also at:

UK Metoffice

WeatherCloud

Weather Underground

Northeastern Weather Network

AWEKAS

Citizen Weather Observer Program (CWOP)

HAMweather, WeatherForYou, PWS Weather


Weather Underground History page Text

Daily Summary for January 28, 2017 Units:  Both    English   Metric
« Previous Day
Next Day »
Daily Weekly Monthly Yearly Custom
  High: Low: Average:
Temperature: 40.5 °F /  4.7 °C 34.6 °F /  1.4 °C 37.1 °F /  2.8 °C
Dew Point: 27.1 °F /  -2.7 °C 23.7 °F /  -4.6 °C 25.2 °F /  -3.8 °C
Humidity: 67 % 51 % 62 %
Wind Speed: 12.0 mph /  19.3 km/h - 5.8 mph /  9.3 km/h
Wind Gust: 20.7 mph /  33.3 km/h - -
Wind:- - WSW
Pressure: 29.71 in /  1006 hPa 29.57 in /  1001.2 hPa -
Precipitation: 0.00 in /  0 mm    
Historical Graphs
 
 
Tabular Data for January 28, 2017
Time Temperature Dew Point Pressure Wind Wind Speed Wind Gust Humidity Rainfall Rate (Hourly)
00:03 38.2 °F /  3.4 °C 26.7 °F /  -2.9 °C 29.58 in /  1001.6 hPa SW 10.6 mph /  17.1 km/h 19.6 mph /  31.5 km/h 63 % 0.00 in /  0 mm
00:08 38.2 °F /  3.4 °C 26.7 °F /  -2.9 °C 29.57 in /  1001.2 hPa SW 6.0 mph /  9.7 km/h 11.5 mph /  18.5 km/h 63 % 0.00 in /  0 mm
00:13 38.2 °F /  3.4 °C 26.7 °F /  -2.9 °C 29.58 in /  1001.6 hPa WSW 6.8 mph /  10.9 km/h 20.0 mph /  32.2 km/h 63 % 0.00 in /  0 mm
00:19 38.1 °F /  3.4 °C 26.6 °F /  -3 °C 29.58 in /  1001.6 hPa WSW 6.6 mph /  10.6 km/h 11.5 mph /  18.5 km/h 63 % 0.00 in /  0 mm
00:24 38.1 °F /  3.4 °C 26.6 °F /  -3 °C 29.58 in /  1001.6 hPa WSW 6.0 mph /  9.7 km/h 12.0 mph /  19.3 km/h 63 % 0.00 in /  0 mm
00:29 38.1 °F /  3.4 °C 26.6 °F /  -3 °C 29.57 in /  1001.2 hPa WSW 5.0 mph /  8 km/h 12.7 mph /  20.4 km/h 63 % 0.00 in /  0 mm
00:34 38.0 °F /  3.3 °C 26.5 °F /  -3.1 °C 29.58 in /  1001.6 hPa WSW 7.0 mph /  11.3 km/h 16.0 mph /  25.7 km/h 63 % 0.00 in /  0 mm
00:39 37.9 °F /  3.3 °C 26.4 °F /  -3.1 °C 29.58 in /  1001.6 hPa WSW 5.0 mph /  8 km/h 14.0 mph /  22.5 km/h 63 % 0.00 in /  0 mm
00:44 37.9 °F /  3.3 °C 26.4 °F /  -3.1 °C 29.58 in /  1001.6 hPa WSW 7.0 mph /  11.3 km/h 14.0 mph /  22.5 km/h 63 % 0.00 in /  0 mm
00:49 37.8 °F /  3.2 °C 26.7 °F /  -2.9 °C 29.58 in /  1001.6 hPa WSW 6.0 mph /  9.7 km/h 13.0 mph /  20.9 km/h 64 % 0.00 in /  0 mm
00:54 37.7 °F /  3.2 °C 26.6 °F /  -3 °C 29.57 in /  1001.2 hPa SW 7.0 mph /  11.3 km/h 12.0 mph /  19.3 km/h 64 % 0.00 in /  0 mm
00:59 37.5 °F /  3.1 °C 26.0 °F /  -3.3 °C 29.57 in /  1001.2 hPa SW 4.0 mph /  6.4 km/h 18.4 mph /  29.6 km/h 63 % 0.00 in /  0 mm
01:04 37.4 °F /  3 °C 25.9 °F /  -3.4 °C 29.58 in /  1001.6 hPa SW 3.3 mph /  5.3 km/h 11.5 mph /  18.5 km/h 63 % 0.00 in /  0 mm
01:09 37.3 °F /  2.9 °C 25.8 °F /  -3.4 °C 29.58 in /  1001.6 hPa SW 7.0 mph /  11.3 km/h 15.0 mph /  24.1 km/h 63 % 0.00 in /  0 mm
01:14 37.3 °F /  2.9 °C 25.8 °F /  -3.4 °C 29.58 in /  1001.6 hPa WSW 8.8 mph /  14.2 km/h 11.5 mph /  18.5 km/h 63 % 0.00 in /  0 mm
01:19 37.3 °F /  2.9 °C 26.2 °F /  -3.2 °C 29.58 in /  1001.6 hPa WSW 4.2 mph /  6.8 km/h 9.2 mph /  14.8 km/h 64 % 0.00 in /  0 mm
01:24 37.2 °F /  2.9 °C 25.8 °F /  -3.4 °C 29.58 in /  1001.6 hPa WSW 6.3 mph /  10.1 km/h 11.5 mph /  18.5 km/h 63 % 0.00 in /  0 mm
01:29 37.2 °F /  2.9 °C 25.8 °F /  -3.4 °C 29.58 in /  1001.6 hPa WSW 10.4 mph /  16.7 km/h 15.0 mph /  24.1 km/h 63 % 0.00 in /  0 mm
01:34 37.1 °F /  2.8 °C 25.7 °F /  -3.5 °C 29.58 in /  1001.6 hPa WSW 5.4 mph /  8.7 km/h 8.1 mph /  13 km/h 63 % 0.00 in /  0 mm
01:39 37.1 °F /  2.8 °C 25.7 °F /  -3.5 °C 29.58 in /  1001.6 hPa WSW 4.7 mph /  7.6 km/h 11.5 mph /  18.5 km/h 63 % 0.00 in /  0 mm
01:44 37.0 °F /  2.8 °C 25.6 °F /  -3.6 °C 29.58 in /  1001.6 hPa WSW 7.5 mph /  12.1 km/h 11.5 mph /  18.5 km/h 63 % 0.00 in /  0 mm
01:49 37.0 °F /  2.8 °C 25.6 °F /  -3.6 °C 29.58 in /  1001.6 hPa South 7.5 mph /  12.1 km/h 9.2 mph /  14.8 km/h 63 % 0.00 in /  0 mm
01:54 37.0 °F /  2.8 °C 25.6 °F /  -3.6 °C 29.58 in /  1001.6 hPa SW 8.0 mph /  12.9 km/h 13.8 mph /  22.2 km/h 63 % 0.00 in /  0 mm
01:59 36.9 °F /  2.7 °C 25.5 °F /  -3.6 °C 29.58 in /  1001.6 hPa SW 7.9 mph /  12.7 km/h 9.2 mph /  14.8 km/h 63 % 0.00 in /  0 mm
02:04 36.9 °F /  2.7 °C 25.5 °F /  -3.6 °C 29.58 in /  1001.6 hPa WSW 5.4 mph /  8.7 km/h 11.5 mph /  18.5 km/h 63 % 0.00 in /  0 mm
02:09 36.8 °F /  2.7 °C 25.4 °F /  -3.7 °C 29.58 in /  1001.6 hPa WSW 8.5 mph /  13.7 km/h 13.8 mph /  22.2 km/h 63 % 0.00 in /  0 mm
02:15 36.8 °F /  2.7 °C 25.4 °F /  -3.7 °C 29.58 in /  1001.6 hPa WSW 10.6 mph /  17.1 km/h 16.1 mph /  25.9 km/h 63 % 0.00 in /  0 mm
02:20 36.8 °F /  2.7 °C 25.4 °F /  -3.7 °C 29.58 in /  1001.6 hPa WNW 8.0 mph /  12.9 km/h 13.0 mph /  20.9 km/h 63 % 0.00 in /  0 mm
02:25 36.7 °F /  2.6 °C 25.3 °F /  -3.7 °C 29.58 in /  1001.6 hPa SW 4.5 mph /  7.2 km/h 15.0 mph /  24.1 km/h 63 % 0.00 in /  0 mm
02:30 36.5 °F /  2.5 °C 25.1 °F /  -3.8 °C 29.58 in /  1001.6 hPa WSW 5.5 mph /  8.9 km/h 10.4 mph /  16.7 km/h 63 % 0.00 in /  0 mm
02:35 36.4 °F /  2.4 °C 25.0 °F /  -3.9 °C 29.58 in /  1001.6 hPa SW 8.9 mph /  14.3 km/h 12.7 mph /  20.4 km/h 63 % 0.00 in /  0 mm
02:40 36.2 °F /  2.3 °C 25.2 °F /  -3.8 °C 29.58 in /  1001.6 hPa SW 7.1 mph /  11.4 km/h 11.5 mph /  18.5 km/h 64 % 0.00 in /  0 mm
02:45 36.1 °F /  2.3 °C 25.1 °F /  -3.8 °C 29.58 in /  1001.6 hPa West 6.3 mph /  10.1 km/h 8.1 mph /  13 km/h 64 % 0.00 in /  0 mm
02:50 35.9 °F /  2.2 °C 25.3 °F /  -3.7 °C 29.58 in /  1001.6 hPa SW 5.0 mph /  8 km/h 9.2 mph /  14.8 km/h 65 % 0.00 in /  0 mm
02:55 35.9 °F /  2.2 °C 25.3 °F /  -3.7 °C 29.57 in /  1001.2 hPa West 8.0 mph /  12.9 km/h 11.5 mph /  18.5 km/h 65 % 0.00 in /  0 mm
03:00 35.8 °F /  2.1 °C 25.2 °F /  -3.8 °C 29.58 in /  1001.6 hPa SW 8.1 mph /  13 km/h 13.8 mph /  22.2 km/h 65 % 0.00 in /  0 mm
03:05 35.7 °F /  2.1 °C 25.1 °F /  -3.8 °C 29.58 in /  1001.6 hPa West 3.2 mph /  5.1 km/h 10.4 mph /  16.7 km/h 65 % 0.00 in /  0 mm
03:10 35.7 °F /  2.1 °C 25.1 °F /  -3.8 °C 29.58 in /  1001.6 hPa West 7.8 mph /  12.6 km/h 13.8 mph /  22.2 km/h 65 % 0.00 in /  0 mm
03:15 35.7 °F /  2.1 °C 25.1 °F /  -3.8 °C 29.58 in /  1001.6 hPa West 9.7 mph /  15.6 km/h 15.0 mph /  24.1 km/h 65 % 0.00 in /  0 mm
03:20 35.8 °F /  2.1 °C 25.2 °F /  -3.8 °C 29.58 in /  1001.6 hPa WSW 5.8 mph /  9.3 km/h 10.4 mph /  16.7 km/h 65 % 0.00 in /  0 mm
03:25 35.7 °F /  2.1 °C 25.1 °F /  -3.8 °C 29.58 in /  1001.6 hPa WSW 3.6 mph /  5.8 km/h 8.0 mph /  12.9 km/h 65 % 0.00 in /  0 mm
03:30 35.7 °F /  2.1 °C 25.4 °F /  -3.7 °C 29.58 in /  1001.6 hPa WSW 5.1 mph /  8.2 km/h 12.0 mph /  19.3 km/h 66 % 0.00 in /  0 mm
03:35 35.6 °F /  2 °C 25.4 °F /  -3.7 °C 29.58 in /  1001.6 hPa SSW 6.9 mph /  11.1 km/h 9.2 mph /  14.8 km/h 66 % 0.00 in /  0 mm
03:40 35.5 °F /  1.9 °C 25.3 °F /  -3.7 °C 29.58 in /  1001.6 hPa SSW 3.8 mph /  6.1 km/h 8.1 mph /  13 km/h 66 % 0.00 in /  0 mm
03:46 35.5 °F /  1.9 °C 25.3 °F /  -3.7 °C 29.58 in /  1001.6 hPa SW 4.6 mph /  7.4 km/h 11.5 mph /  18.5 km/h 66 % 0.00 in /  0 mm
03:51 35.4 °F /  1.9 °C 25.2 °F /  -3.8 °C 29.58 in /  1001.6 hPa SSW 7.5 mph /  12.1 km/h 13.8 mph /  22.2 km/h 66 % 0.00 in /  0 mm
03:56 35.3 °F /  1.8 °C 25.1 °F /  -3.8 °C 29.58 in /  1001.6 hPa SW 3.1 mph /  5 km/h 17.3 mph /  27.8 km/h 66 % 0.00 in /  0 mm
04:01 35.3 °F /  1.8 °C 25.1 °F /  -3.8 °C 29.58 in /  1001.6 hPa WSW 5.4 mph /  8.7 km/h 11.5 mph /  18.5 km/h 66 % 0.00 in /  0 mm
04:06 35.3 °F /  1.8 °C 24.7 °F /  -4.1 °C 29.58 in /  1001.6 hPa WSW 8.5 mph /  13.7 km/h 13.8 mph /  22.2 km/h 65 % 0.00 in /  0 mm
04:11 35.4 °F /  1.9 °C 24.8 °F /  -4 °C 29.59 in /  1001.9 hPa SSE 5.2 mph /  8.4 km/h 10.4 mph /  16.7 km/h 65 % 0.00 in /  0 mm
04:16 35.4 °F /  1.9 °C 24.8 °F /  -4 °C 29.59 in /  1001.9 hPa WSW 7.6 mph /  12.2 km/h 11.5 mph /  18.5 km/h 65 % 0.00 in /  0 mm
04:26 35.5 °F /  1.9 °C 24.5 °F /  -4.2 °C 29.59 in /  1001.9 hPa WSW 7.6 mph /  12.2 km/h 16.1 mph /  25.9 km/h 64 % 0.00 in /  0 mm
04:31 35.6 °F /  2 °C 24.6 °F /  -4.1 °C 29.59 in /  1001.9 hPa SW 7.5 mph /  12.1 km/h 12.7 mph /  20.4 km/h 64 % 0.00 in /  0 mm
04:36 35.7 °F /  2.1 °C 24.7 °F /  -4.1 °C 29.58 in /  1001.6 hPa WSW 6.7 mph /  10.8 km/h 15.0 mph /  24.1 km/h 64 % 0.00 in /  0 mm
04:41 35.8 °F /  2.1 °C 24.4 °F /  -4.2 °C 29.58 in /  1001.6 hPa WSW 10.4 mph /  16.7 km/h 16.1 mph /  25.9 km/h 63 % 0.00 in /  0 mm
04:46 35.8 °F /  2.1 °C 24.8 °F /  -4 °C 29.59 in /  1001.9 hPa SSW 7.8 mph /  12.6 km/h 12.7 mph /  20.4 km/h 64 % 0.00 in /  0 mm
04:51 35.8 °F /  2.1 °C 24.4 °F /  -4.2 °C 29.59 in /  1001.9 hPa SW 10.2 mph /  16.4 km/h 17.3 mph /  27.8 km/h 63 % 0.00 in /  0 mm
04:56 35.8 °F /  2.1 °C 24.4 °F /  -4.2 °C 29.59 in /  1001.9 hPa WNW 7.2 mph /  11.6 km/h 15.0 mph /  24.1 km/h 63 % 0.00 in /  0 mm
05:01 35.8 °F /  2.1 °C 24.4 °F /  -4.2 °C 29.59 in /  1001.9 hPa South 7.7 mph /  12.4 km/h 15.0 mph /  24.1 km/h 63 % 0.00 in /  0 mm
05:06 35.9 °F /  2.2 °C 24.5 °F /  -4.2 °C 29.59 in /  1001.9 hPa SW 7.0 mph /  11.3 km/h 10.4 mph /  16.7 km/h 63 % 0.00 in /  0 mm
05:12 35.8 °F /  2.1 °C 24.4 °F /  -4.2 °C 29.59 in /  1001.9 hPa WSW 5.2 mph /  8.4 km/h 11.0 mph /  17.7 km/h 63 % 0.00 in /  0 mm
05:17 35.8 °F /  2.1 °C 24.4 °F /  -4.2 °C 29.59 in /  1001.9 hPa SW 5.0 mph /  8 km/h 10.0 mph /  16.1 km/h 63 % 0.00 in /  0 mm
05:22 35.8 °F /  2.1 °C 24.4 °F /  -4.2 °C 29.59 in /  1001.9 hPa South 6.9 mph /  11.1 km/h 13.8 mph /  22.2 km/h 63 % 0.00 in /  0 mm
05:27 35.7 °F /  2.1 °C 24.3 °F /  -4.3 °C 29.59 in /  1001.9 hPa WSW 5.0 mph /  8 km/h 9.0 mph /  14.5 km/h 63 % 0.00 in /  0 mm
05:32 35.7 °F /  2.1 °C 24.3 °F /  -4.3 °C 29.59 in /  1001.9 hPa SW 6.6 mph /  10.6 km/h 11.5 mph /  18.5 km/h 63 % 0.00 in /  0 mm
05:37 35.6 °F /  2 °C 24.2 °F /  -4.3 °C 29.59 in /  1001.9 hPa WSW 7.2 mph /  11.6 km/h 10.4 mph /  16.7 km/h 63 % 0.00 in /  0 mm
05:42 35.5 °F /  1.9 °C 24.1 °F /  -4.4 °C 29.59 in /  1001.9 hPa WSW 7.5 mph /  12.1 km/h 12.7 mph /  20.4 km/h 63 % 0.00 in /  0 mm
05:47 35.5 °F /  1.9 °C 24.1 °F /  -4.4 °C 29.60 in /  1002.3 hPa WSW 10.7 mph /  17.2 km/h 17.3 mph /  27.8 km/h 63 % 0.00 in /  0 mm
05:52 35.4 °F /  1.9 °C 24.0 °F /  -4.4 °C 29.60 in /  1002.3 hPa SW 5.9 mph /  9.5 km/h 11.0 mph /  17.7 km/h 63 % 0.00 in /  0 mm
05:57 35.4 °F /  1.9 °C 24.0 °F /  -4.4 °C 29.60 in /  1002.3 hPa WSW 5.7 mph /  9.2 km/h 10.4 mph /  16.7 km/h 63 % 0.00 in /  0 mm
06:02 35.3 °F /  1.8 °C 24.3 °F /  -4.3 °C 29.60 in /  1002.3 hPa WSW 7.0 mph /  11.3 km/h 15.0 mph /  24.1 km/h 64 % 0.00 in /  0 mm
06:07 35.3 °F /  1.8 °C 24.3 °F /  -4.3 °C 29.60 in /  1002.3 hPa South 3.7 mph /  6 km/h 6.9 mph /  11.1 km/h 64 % 0.00 in /  0 mm
06:12 35.3 °F /  1.8 °C 24.3 °F /  -4.3 °C 29.60 in /  1002.3 hPa WSW 7.4 mph /  11.9 km/h 15.0 mph /  24.1 km/h 64 % 0.00 in /  0 mm
06:13 35.3 °F /  1.8 °C 24.3 °F /  -4.3 °C 29.60 in /  1002.3 hPa SSW 6.2 mph /  10 km/h 15.0 mph /  24.1 km/h 64 % 0.00 in /  0 mm
06:18 35.3 °F /  1.8 °C 24.3 °F /  -4.3 °C 29.61 in /  1002.6 hPa WSW 7.2 mph /  11.6 km/h 11.5 mph /  18.5 km/h 64 % 0.00 in /  0 mm
06:23 35.3 °F /  1.8 °C 24.3 °F /  -4.3 °C 29.61 in /  1002.6 hPa WSW 6.0 mph /  9.7 km/h 18.4 mph /  29.6 km/h 64 % 0.00 in /  0 mm
06:28 35.3 °F /  1.8 °C 24.3 °F /  -4.3 °C 29.61 in /  1002.6 hPa WSW 8.0 mph /  12.9 km/h 15.0 mph /  24.1 km/h 64 % 0.00 in /  0 mm
06:33 35.4 °F /  1.9 °C 24.4 °F /  -4.2 °C 29.61 in /  1002.6 hPa WSW 3.7 mph /  6 km/h 9.2 mph /  14.8 km/h 64 % 0.00 in /  0 mm
06:38 35.4 °F /  1.9 °C 24.4 °F /  -4.2 °C 29.61 in /  1002.6 hPa SSW 8.5 mph /  13.7 km/h 12.7 mph /  20.4 km/h 64 % 0.00 in /  0 mm
06:43 35.4 °F /  1.9 °C 24.4 °F /  -4.2 °C 29.61 in /  1002.6 hPa WSW 4.8 mph /  7.7 km/h 9.0 mph /  14.5 km/h 64 % 0.00 in /  0 mm
06:48 35.4 °F /  1.9 °C 24.4 °F /  -4.2 °C 29.61 in /  1002.6 hPa WSW 7.8 mph /  12.6 km/h 11.5 mph /  18.5 km/h 64 % 0.00 in /  0 mm
06:53 35.4 °F /  1.9 °C 24.4 °F /  -4.2 °C 29.61 in /  1002.6 hPa WSW 5.0 mph /  8 km/h 11.5 mph /  18.5 km/h 64 % 0.00 in /  0 mm
06:58 35.4 °F /  1.9 °C 24.4 °F /  -4.2 °C 29.62 in /  1002.9 hPa SW 7.9 mph /  12.7 km/h 16.0 mph /  25.7 km/h 64 % 0.00 in /  0 mm
07:03 35.4 °F /  1.9 °C 24.4 °F /  -4.2 °C 29.62 in /  1002.9 hPa WSW 6.9 mph /  11.1 km/h 11.5 mph /  18.5 km/h 64 % 0.00 in /  0 mm
07:08 35.3 °F /  1.8 °C 24.3 °F /  -4.3 °C 29.61 in /  1002.6 hPa SSW 5.1 mph /  8.2 km/h 12.7 mph /  20.4 km/h 64 % 0.00 in /  0 mm
07:13 35.2 °F /  1.8 °C 24.2 °F /  -4.3 °C 29.62 in /  1002.9 hPa SW 6.0 mph /  9.7 km/h 10.0 mph /  16.1 km/h 64 % 0.00 in /  0 mm
07:18 35.1 °F /  1.7 °C 24.5 °F /  -4.2 °C 29.61 in /  1002.6 hPa WSW 5.8 mph /  9.3 km/h 9.2 mph /  14.8 km/h 65 % 0.00 in /  0 mm
07:23 35.1 °F /  1.7 °C 24.1 °F /  -4.4 °C 29.61 in /  1002.6 hPa WSW 5.6 mph /  9 km/h 13.8 mph /  22.2 km/h 64 % 0.00 in /  0 mm
07:28 35.1 °F /  1.7 °C 24.1 °F /  -4.4 °C 29.62 in /  1002.9 hPa SSW 9.6 mph /  15.4 km/h 19.6 mph /  31.5 km/h 64 % 0.00 in /  0 mm
07:34 35.2 °F /  1.8 °C 24.2 °F /  -4.3 °C 29.62 in /  1002.9 hPa SW 3.3 mph /  5.3 km/h 6.9 mph /  11.1 km/h 64 % 0.00 in /  0 mm
07:39 35.1 °F /  1.7 °C 24.2 °F /  -4.3 °C 29.62 in /  1002.9 hPa WSW 9.0 mph /  14.5 km/h 14.0 mph /  22.5 km/h 64 % 0.00 in /  0 mm
07:44 35.2 °F /  1.8 °C 24.2 °F /  -4.3 °C 29.62 in /  1002.9 hPa SW 6.0 mph /  9.7 km/h 12.0 mph /  19.3 km/h 64 % 0.00 in /  0 mm
07:49 35.3 °F /  1.8 °C 24.3 °F /  -4.3 °C 29.62 in /  1002.9 hPa West 6.6 mph /  10.6 km/h 10.4 mph /  16.7 km/h 64 % 0.00 in /  0 mm
07:54 35.3 °F /  1.8 °C 24.3 °F /  -4.3 °C 29.62 in /  1002.9 hPa WSW 6.0 mph /  9.7 km/h 12.0 mph /  19.3 km/h 64 % 0.00 in /  0 mm
07:59 35.5 °F /  1.9 °C 24.5 °F /  -4.2 °C 29.62 in /  1002.9 hPa SW 4.6 mph /  7.4 km/h 6.9 mph /  11.1 km/h 64 % 0.00 in /  0 mm
08:04 35.6 °F /  2 °C 24.6 °F /  -4.1 °C 29.62 in /  1002.9 hPa West 8.4 mph /  13.5 km/h 20.7 mph /  33.3 km/h 64 % 0.00 in /  0 mm
08:09 35.9 °F /  2.2 °C 24.5 °F /  -4.2 °C 29.63 in /  1003.3 hPa West 3.3 mph /  5.3 km/h 6.9 mph /  11.1 km/h 63 % 0.00 in /  0 mm
08:14 36.3 °F /  2.4 °C 24.9 °F /  -3.9 °C 29.63 in /  1003.3 hPa SW 6.4 mph /  10.3 km/h 12.0 mph /  19.3 km/h 63 % 0.00 in /  0 mm
08:19 36.6 °F /  2.6 °C 24.8 °F /  -4 °C 29.63 in /  1003.3 hPa WSW 10.8 mph /  17.4 km/h 19.6 mph /  31.5 km/h 62 % 0.00 in /  0 mm
08:24 36.8 °F /  2.7 °C 25.0 °F /  -3.9 °C 29.63 in /  1003.3 hPa SW 5.0 mph /  8 km/h 10.4 mph /  16.7 km/h 62 % 0.00 in /  0 mm
08:29 36.9 °F /  2.7 °C 24.7 °F /  -4.1 °C 29.64 in /  1003.6 hPa West 7.6 mph /  12.2 km/h 12.7 mph /  20.4 km/h 61 % 0.00 in /  0 mm
08:34 37.0 °F /  2.8 °C 24.4 °F /  -4.2 °C 29.64 in /  1003.6 hPa WSW 11.2 mph /  18 km/h 18.4 mph /  29.6 km/h 60 % 0.00 in /  0 mm
08:39 36.9 °F /  2.7 °C 24.7 °F /  -4.1 °C 29.64 in /  1003.6 hPa WSW 4.9 mph /  7.9 km/h 10.4 mph /  16.7 km/h 61 % 0.00 in /  0 mm
08:44 36.9 °F /  2.7 °C 24.7 °F /  -4.1 °C 29.64 in /  1003.6 hPa West 6.7 mph /  10.8 km/h 11.5 mph /  18.5 km/h 61 % 0.00 in /  0 mm
08:49 36.8 °F /  2.7 °C 24.6 °F /  -4.1 °C 29.64 in /  1003.6 hPa WSW 8.0 mph /  12.9 km/h 16.1 mph /  25.9 km/h 61 % 0.00 in /  0 mm
08:54 36.8 °F /  2.7 °C 24.6 °F /  -4.1 °C 29.64 in /  1003.6 hPa WSW 10.8 mph /  17.4 km/h 17.3 mph /  27.8 km/h 61 % 0.00 in /  0 mm
08:59 36.8 °F /  2.7 °C 24.6 °F /  -4.1 °C 29.64 in /  1003.6 hPa WSW 7.8 mph /  12.6 km/h 19.6 mph /  31.5 km/h 61 % 0.00 in /  0 mm
09:04 36.8 °F /  2.7 °C 24.6 °F /  -4.1 °C 29.64 in /  1003.6 hPa WNW 7.3 mph /  11.7 km/h 20.7 mph /  33.3 km/h 61 % 0.00 in /  0 mm
09:09 36.7 °F /  2.6 °C 24.5 °F /  -4.2 °C 29.64 in /  1003.6 hPa WSW 9.3 mph /  15 km/h 18.0 mph /  29 km/h 61 % 0.00 in /  0 mm
09:14 36.8 °F /  2.7 °C 25.0 °F /  -3.9 °C 29.64 in /  1003.6 hPa West 7.4 mph /  11.9 km/h 11.5 mph /  18.5 km/h 62 % 0.00 in /  0 mm
09:19 36.9 °F /  2.7 °C 24.7 °F /  -4.1 °C 29.65 in /  1003.9 hPa WSW 3.5 mph /  5.6 km/h 11.5 mph /  18.5 km/h 61 % 0.00 in /  0 mm
09:25 37.0 °F /  2.8 °C 24.8 °F /  -4 °C 29.65 in /  1003.9 hPa West 7.6 mph /  12.2 km/h 13.8 mph /  22.2 km/h 61 % 0.00 in /  0 mm
09:30 37.2 °F /  2.9 °C 25.4 °F /  -3.7 °C 29.65 in /  1003.9 hPa WSW 9.9 mph /  15.9 km/h 13.0 mph /  20.9 km/h 62 % 0.00 in /  0 mm
09:35 37.4 °F /  3 °C 24.8 °F /  -4 °C 29.65 in /  1003.9 hPa SW 5.4 mph /  8.7 km/h 17.3 mph /  27.8 km/h 60 % 0.00 in /  0 mm
09:40 37.6 °F /  3.1 °C 25.0 °F /  -3.9 °C 29.65 in /  1003.9 hPa WSW 5.3 mph /  8.5 km/h 8.1 mph /  13 km/h 60 % 0.00 in /  0 mm
09:45 37.7 °F /  3.2 °C 25.1 °F /  -3.8 °C 29.65 in /  1003.9 hPa WSW 8.1 mph /  13 km/h 13.8 mph /  22.2 km/h 60 % 0.00 in /  0 mm
09:50 37.8 °F /  3.2 °C 25.1 °F /  -3.8 °C 29.65 in /  1003.9 hPa WSW 7.8 mph /  12.6 km/h 13.8 mph /  22.2 km/h 60 % 0.00 in /  0 mm
09:55 37.9 °F /  3.3 °C 25.6 °F /  -3.6 °C 29.65 in /  1003.9 hPa WSW 7.1 mph /  11.4 km/h 14.0 mph /  22.5 km/h 61 % 0.00 in /  0 mm
10:00 37.9 °F /  3.3 °C 25.6 °F /  -3.6 °C 29.66 in /  1004.3 hPa SW 9.5 mph /  15.3 km/h 16.1 mph /  25.9 km/h 61 % 0.00 in /  0 mm
10:05 37.9 °F /  3.3 °C 25.6 °F /  -3.6 °C 29.66 in /  1004.3 hPa West 3.8 mph /  6.1 km/h 8.0 mph /  12.9 km/h 61 % 0.00 in /  0 mm
10:10 38.0 °F /  3.3 °C 25.3 °F /  -3.7 °C 29.66 in /  1004.3 hPa SW 8.6 mph /  13.8 km/h 18.4 mph /  29.6 km/h 60 % 0.00 in /  0 mm
10:15 38.0 °F /  3.3 °C 25.3 °F /  -3.7 °C 29.66 in /  1004.3 hPa West 7.0 mph /  11.3 km/h 10.4 mph /  16.7 km/h 60 % 0.00 in /  0 mm
10:20 38.1 °F /  3.4 °C 26.2 °F /  -3.2 °C 29.66 in /  1004.3 hPa West 8.6 mph /  13.8 km/h 12.0 mph /  19.3 km/h 62 % 0.00 in /  0 mm
10:25 38.2 °F /  3.4 °C 25.9 °F /  -3.4 °C 29.66 in /  1004.3 hPa SW 8.3 mph /  13.4 km/h 17.3 mph /  27.8 km/h 61 % 0.00 in /  0 mm
10:30 38.2 °F /  3.4 °C 25.9 °F /  -3.4 °C 29.66 in /  1004.3 hPa West 6.2 mph /  10 km/h 16.1 mph /  25.9 km/h 61 % 0.00 in /  0 mm
10:35 38.4 °F /  3.6 °C 26.1 °F /  -3.3 °C 29.66 in /  1004.3 hPa SW 5.9 mph /  9.5 km/h 12.0 mph /  19.3 km/h 61 % 0.00 in /  0 mm
10:40 38.4 °F /  3.6 °C 26.1 °F /  -3.3 °C 29.66 in /  1004.3 hPa WSW 7.9 mph /  12.7 km/h 19.6 mph /  31.5 km/h 61 % 0.00 in /  0 mm
10:45 38.4 °F /  3.6 °C 26.1 °F /  -3.3 °C 29.66 in /  1004.3 hPa WNW 9.1 mph /  14.6 km/h 16.1 mph /  25.9 km/h 61 % 0.00 in /  0 mm
10:51 38.4 °F /  3.6 °C 26.1 °F /  -3.3 °C 29.66 in /  1004.3 hPa SW 10.8 mph /  17.4 km/h 12.0 mph /  19.3 km/h 61 % 0.00 in /  0 mm
10:56 38.5 °F /  3.6 °C 26.2 °F /  -3.2 °C 29.65 in /  1003.9 hPa WSW 7.9 mph /  12.7 km/h 16.0 mph /  25.7 km/h 61 % 0.00 in /  0 mm
11:01 38.6 °F /  3.7 °C 25.9 °F /  -3.4 °C 29.65 in /  1003.9 hPa West 10.3 mph /  16.6 km/h 13.8 mph /  22.2 km/h 60 % 0.00 in /  0 mm
11:06 38.6 °F /  3.7 °C 25.9 °F /  -3.4 °C 29.65 in /  1003.9 hPa West 5.0 mph /  8 km/h 8.1 mph /  13 km/h 60 % 0.00 in /  0 mm
11:11 38.8 °F /  3.8 °C 26.5 °F /  -3.1 °C 29.65 in /  1003.9 hPa WSW 10.4 mph /  16.7 km/h 15.0 mph /  24.1 km/h 61 % 0.00 in /  0 mm
11:16 38.8 °F /  3.8 °C 26.1 °F /  -3.3 °C 29.65 in /  1003.9 hPa SW 9.6 mph /  15.4 km/h 13.8 mph /  22.2 km/h 60 % 0.00 in /  0 mm
11:21 38.9 °F /  3.8 °C 26.6 °F /  -3 °C 29.65 in /  1003.9 hPa WNW 4.9 mph /  7.9 km/h 9.2 mph /  14.8 km/h 61 % 0.00 in /  0 mm
11:26 39.0 °F /  3.9 °C 26.3 °F /  -3.2 °C 29.65 in /  1003.9 hPa WSW 6.6 mph /  10.6 km/h 14.0 mph /  22.5 km/h 60 % 0.00 in /  0 mm
11:31 39.3 °F /  4.1 °C 26.6 °F /  -3 °C 29.64 in /  1003.6 hPa West 7.6 mph /  12.2 km/h 12.7 mph /  20.4 km/h 60 % 0.00 in /  0 mm
11:36 39.6 °F /  4.2 °C 26.4 °F /  -3.1 °C 29.64 in /  1003.6 hPa West 7.6 mph /  12.2 km/h 11.5 mph /  18.5 km/h 59 % 0.00 in /  0 mm
11:41 39.7 °F /  4.3 °C 26.9 °F /  -2.8 °C 29.64 in /  1003.6 hPa SW 3.2 mph /  5.1 km/h 8.1 mph /  13 km/h 60 % 0.00 in /  0 mm
11:46 39.9 °F /  4.4 °C 26.7 °F /  -2.9 °C 29.63 in /  1003.3 hPa SW 8.7 mph /  14 km/h 11.5 mph /  18.5 km/h 59 % 0.00 in /  0 mm
11:51 40.0 °F /  4.4 °C 26.8 °F /  -2.9 °C 29.63 in /  1003.3 hPa WSW 5.7 mph /  9.2 km/h 9.2 mph /  14.8 km/h 59 % 0.00 in /  0 mm
11:56 40.0 °F /  4.4 °C 26.4 °F /  -3.1 °C 29.63 in /  1003.3 hPa SW 12.0 mph /  19.3 km/h 19.6 mph /  31.5 km/h 58 % 0.00 in /  0 mm
12:01 40.0 °F /  4.4 °C 26.4 °F /  -3.1 °C 29.63 in /  1003.3 hPa WNW 4.6 mph /  7.4 km/h 10.4 mph /  16.7 km/h 58 % 0.00 in /  0 mm
12:06 40.0 °F /  4.4 °C 26.0 °F /  -3.3 °C 29.63 in /  1003.3 hPa SW 7.6 mph /  12.2 km/h 11.5 mph /  18.5 km/h 57 % 0.00 in /  0 mm
12:11 40.0 °F /  4.4 °C 25.6 °F /  -3.6 °C 29.63 in /  1003.3 hPa WSW 4.9 mph /  7.9 km/h 10.4 mph /  16.7 km/h 56 % 0.00 in /  0 mm
12:17 40.0 °F /  4.4 °C 25.1 °F /  -3.8 °C 29.62 in /  1002.9 hPa WSW 2.9 mph /  4.7 km/h 5.8 mph /  9.3 km/h 55 % 0.00 in /  0 mm
12:22 40.1 °F /  4.5 °C 25.2 °F /  -3.8 °C 29.62 in /  1002.9 hPa SW 7.7 mph /  12.4 km/h 16.1 mph /  25.9 km/h 55 % 0.00 in /  0 mm
12:27 40.1 °F /  4.5 °C 25.2 °F /  -3.8 °C 29.62 in /  1002.9 hPa SSW 7.5 mph /  12.1 km/h 15.0 mph /  24.1 km/h 55 % 0.00 in /  0 mm
12:32 40.2 °F /  4.6 °C 26.2 °F /  -3.2 °C 29.62 in /  1002.9 hPa WSW 10.5 mph /  16.9 km/h 17.3 mph /  27.8 km/h 57 % 0.00 in /  0 mm
12:37 40.1 °F /  4.5 °C 25.2 °F /  -3.8 °C 29.62 in /  1002.9 hPa West 7.8 mph /  12.6 km/h 19.6 mph /  31.5 km/h 55 % 0.00 in /  0 mm
12:42 40.0 °F /  4.4 °C 25.6 °F /  -3.6 °C 29.62 in /  1002.9 hPa West 9.3 mph /  15 km/h 15.0 mph /  24.1 km/h 56 % 0.00 in /  0 mm
12:47 39.9 °F /  4.4 °C 25.9 °F /  -3.4 °C 29.61 in /  1002.6 hPa SW 9.3 mph /  15 km/h 16.1 mph /  25.9 km/h 57 % 0.00 in /  0 mm
12:52 40.0 °F /  4.4 °C 24.7 °F /  -4.1 °C 29.61 in /  1002.6 hPa SW 5.2 mph /  8.4 km/h 8.1 mph /  13 km/h 54 % 0.00 in /  0 mm
12:57 40.2 °F /  4.6 °C 24.9 °F /  -3.9 °C 29.61 in /  1002.6 hPa WNW 5.8 mph /  9.3 km/h 10.4 mph /  16.7 km/h 54 % 0.00 in /  0 mm
13:02 40.5 °F /  4.7 °C 24.2 °F /  -4.3 °C 29.61 in /  1002.6 hPa WSW 8.1 mph /  13 km/h 11.5 mph /  18.5 km/h 52 % 0.00 in /  0 mm
13:07 40.5 °F /  4.7 °C 24.2 °F /  -4.3 °C 29.61 in /  1002.6 hPa WNW 8.2 mph /  13.2 km/h 13.8 mph /  22.2 km/h 52 % 0.00 in /  0 mm
13:12 40.5 °F /  4.7 °C 23.8 °F /  -4.6 °C 29.61 in /  1002.6 hPa WNW 5.0 mph /  8 km/h 11.5 mph /  18.5 km/h 51 % 0.00 in /  0 mm
13:17 40.4 °F /  4.7 °C 24.1 °F /  -4.4 °C 29.62 in /  1002.9 hPa WNW 6.5 mph /  10.5 km/h 15.0 mph /  24.1 km/h 52 % 0.00 in /  0 mm
13:22 40.1 °F /  4.5 °C 23.9 °F /  -4.5 °C 29.62 in /  1002.9 hPa WNW 5.5 mph /  8.9 km/h 17.3 mph /  27.8 km/h 52 % 0.00 in /  0 mm
13:27 39.9 °F /  4.4 °C 23.7 °F /  -4.6 °C 29.62 in /  1002.9 hPa West 8.9 mph /  14.3 km/h 16.1 mph /  25.9 km/h 52 % 0.00 in /  0 mm
13:32 39.7 °F /  4.3 °C 24.4 °F /  -4.2 °C 29.61 in /  1002.6 hPa NW 4.0 mph /  6.4 km/h 8.1 mph /  13 km/h 54 % 0.00 in /  0 mm
13:37 39.6 °F /  4.2 °C 25.6 °F /  -3.6 °C 29.62 in /  1002.9 hPa NW 2.6 mph /  4.2 km/h 12.7 mph /  20.4 km/h 57 % 0.00 in /  0 mm
13:42 39.4 °F /  4.1 °C 25.8 °F /  -3.4 °C 29.61 in /  1002.6 hPa NW 6.0 mph /  9.7 km/h 11.5 mph /  18.5 km/h 58 % 0.00 in /  0 mm
13:47 39.3 °F /  4.1 °C 26.2 °F /  -3.2 °C 29.62 in /  1002.9 hPa NW 7.2 mph /  11.6 km/h 11.0 mph /  17.7 km/h 59 % 0.00 in /  0 mm
13:53 39.1 °F /  3.9 °C 26.0 °F /  -3.3 °C 29.62 in /  1002.9 hPa NW 5.7 mph /  9.2 km/h 11.5 mph /  18.5 km/h 59 % 0.00 in /  0 mm
13:58 39.0 °F /  3.9 °C 26.3 °F /  -3.2 °C 29.61 in /  1002.6 hPa NW 5.0 mph /  8 km/h 11.5 mph /  18.5 km/h 60 % 0.00 in /  0 mm
14:03 38.8 °F /  3.8 °C 25.7 °F /  -3.5 °C 29.62 in /  1002.9 hPa NW 7.8 mph /  12.6 km/h 18.4 mph /  29.6 km/h 59 % 0.00 in /  0 mm
14:08 38.6 °F /  3.7 °C 25.5 °F /  -3.6 °C 29.62 in /  1002.9 hPa WNW 6.5 mph /  10.5 km/h 11.5 mph /  18.5 km/h 59 % 0.00 in /  0 mm
14:13 38.5 °F /  3.6 °C 26.2 °F /  -3.2 °C 29.62 in /  1002.9 hPa NW 5.1 mph /  8.2 km/h 9.2 mph /  14.8 km/h 61 % 0.00 in /  0 mm
14:18 38.5 °F /  3.6 °C 25.8 °F /  -3.4 °C 29.62 in /  1002.9 hPa WNW 1.8 mph /  2.9 km/h 5.8 mph /  9.3 km/h 60 % 0.00 in /  0 mm
14:23 38.6 °F /  3.7 °C 26.3 °F /  -3.2 °C 29.62 in /  1002.9 hPa West 2.8 mph /  4.5 km/h 10.4 mph /  16.7 km/h 61 % 0.00 in /  0 mm
14:28 38.6 °F /  3.7 °C 26.3 °F /  -3.2 °C 29.62 in /  1002.9 hPa WNW 5.9 mph /  9.5 km/h 13.0 mph /  20.9 km/h 61 % 0.00 in /  0 mm
14:33 38.6 °F /  3.7 °C 26.7 °F /  -2.9 °C 29.62 in /  1002.9 hPa NW 4.7 mph /  7.6 km/h 10.4 mph /  16.7 km/h 62 % 0.00 in /  0 mm
14:38 38.6 °F /  3.7 °C 27.1 °F /  -2.7 °C 29.62 in /  1002.9 hPa WNW 5.1 mph /  8.2 km/h 8.1 mph /  13 km/h 63 % 0.00 in /  0 mm
14:43 38.5 °F /  3.6 °C 27.0 °F /  -2.8 °C 29.63 in /  1003.3 hPa WNW 3.4 mph /  5.5 km/h 9.0 mph /  14.5 km/h 63 % 0.00 in /  0 mm
14:48 38.4 °F /  3.6 °C 26.9 °F /  -2.8 °C 29.63 in /  1003.3 hPa WNW 3.1 mph /  5 km/h 8.1 mph /  13 km/h 63 % 0.00 in /  0 mm
14:53 38.3 °F /  3.5 °C 26.8 °F /  -2.9 °C 29.63 in /  1003.3 hPa WNW 4.6 mph /  7.4 km/h 9.2 mph /  14.8 km/h 63 % 0.00 in /  0 mm
14:58 38.2 °F /  3.4 °C 26.7 °F /  -2.9 °C 29.63 in /  1003.3 hPa NW 3.8 mph /  6.1 km/h 6.0 mph /  9.7 km/h 63 % 0.00 in /  0 mm
15:03 38.1 °F /  3.4 °C 26.6 °F /  -3 °C 29.63 in /  1003.3 hPa NW 4.7 mph /  7.6 km/h 7.0 mph /  11.3 km/h 63 % 0.00 in /  0 mm
15:08 38.1 °F /  3.4 °C 26.2 °F /  -3.2 °C 29.63 in /  1003.3 hPa WNW 3.0 mph /  4.8 km/h 9.2 mph /  14.8 km/h 62 % 0.00 in /  0 mm
15:13 38.0 °F /  3.3 °C 26.1 °F /  -3.3 °C 29.63 in /  1003.3 hPa WNW 1.3 mph /  2.1 km/h 3.5 mph /  5.6 km/h 62 % 0.00 in /  0 mm
15:19 38.0 °F /  3.3 °C 26.5 °F /  -3.1 °C 29.64 in /  1003.6 hPa West 3.9 mph /  6.3 km/h 6.0 mph /  9.7 km/h 63 % 0.00 in /  0 mm
15:24 38.0 °F /  3.3 °C 26.5 °F /  -3.1 °C 29.64 in /  1003.6 hPa West 2.0 mph /  3.2 km/h 7.0 mph /  11.3 km/h 63 % 0.00 in /  0 mm
15:29 38.0 °F /  3.3 °C 26.2 °F /  -3.2 °C 29.64 in /  1003.6 hPa West 6.0 mph /  9.7 km/h 15.0 mph /  24.1 km/h 62 % 0.00 in /  0 mm
15:34 38.1 °F /  3.4 °C 25.8 °F /  -3.4 °C 29.64 in /  1003.6 hPa West 7.0 mph /  11.3 km/h 12.0 mph /  19.3 km/h 61 % 0.00 in /  0 mm
15:39 38.1 °F /  3.4 °C 25.4 °F /  -3.7 °C 29.64 in /  1003.6 hPa West 3.0 mph /  4.8 km/h 13.0 mph /  20.9 km/h 60 % 0.00 in /  0 mm
15:44 38.2 °F /  3.4 °C 25.5 °F /  -3.6 °C 29.64 in /  1003.6 hPa West 3.0 mph /  4.8 km/h 9.0 mph /  14.5 km/h 60 % 0.00 in /  0 mm
15:49 38.2 °F /  3.4 °C 25.5 °F /  -3.6 °C 29.64 in /  1003.6 hPa West 3.0 mph /  4.8 km/h 10.0 mph /  16.1 km/h 60 % 0.00 in /  0 mm
15:54 38.2 °F /  3.4 °C 25.5 °F /  -3.6 °C 29.64 in /  1003.6 hPa West 2.0 mph /  3.2 km/h 12.0 mph /  19.3 km/h 60 % 0.00 in /  0 mm
15:59 38.2 °F /  3.4 °C 24.7 °F /  -4.1 °C 29.64 in /  1003.6 hPa WNW 5.7 mph /  9.2 km/h 12.7 mph /  20.4 km/h 58 % 0.00 in /  0 mm
16:04 38.2 °F /  3.4 °C 24.3 °F /  -4.3 °C 29.64 in /  1003.6 hPa WNW 5.2 mph /  8.4 km/h 9.2 mph /  14.8 km/h 57 % 0.00 in /  0 mm
16:09 38.2 °F /  3.4 °C 24.7 °F /  -4.1 °C 29.64 in /  1003.6 hPa WSW 4.3 mph /  6.9 km/h 12.7 mph /  20.4 km/h 58 % 0.00 in /  0 mm
16:14 38.2 °F /  3.4 °C 24.3 °F /  -4.3 °C 29.64 in /  1003.6 hPa WSW 5.9 mph /  9.5 km/h 12.7 mph /  20.4 km/h 57 % 0.00 in /  0 mm
16:19 38.1 °F /  3.4 °C 24.2 °F /  -4.3 °C 29.64 in /  1003.6 hPa WSW 5.4 mph /  8.7 km/h 9.2 mph /  14.8 km/h 57 % 0.00 in /  0 mm
16:24 38.1 °F /  3.4 °C 24.6 °F /  -4.1 °C 29.64 in /  1003.6 hPa WNW 6.9 mph /  11.1 km/h 10.4 mph /  16.7 km/h 58 % 0.00 in /  0 mm
16:29 38.0 °F /  3.3 °C 24.5 °F /  -4.2 °C 29.64 in /  1003.6 hPa West 4.3 mph /  6.9 km/h 8.0 mph /  12.9 km/h 58 % 0.00 in /  0 mm
16:34 38.0 °F /  3.3 °C 24.9 °F /  -3.9 °C 29.64 in /  1003.6 hPa WNW 2.1 mph /  3.4 km/h 3.5 mph /  5.6 km/h 59 % 0.00 in /  0 mm
16:39 38.0 °F /  3.3 °C 24.5 °F /  -4.2 °C 29.64 in /  1003.6 hPa West 4.4 mph /  7.1 km/h 8.1 mph /  13 km/h 58 % 0.00 in /  0 mm
16:44 38.0 °F /  3.3 °C 24.5 °F /  -4.2 °C 29.64 in /  1003.6 hPa NW 7.8 mph /  12.6 km/h 11.5 mph /  18.5 km/h 58 % 0.00 in /  0 mm
16:49 37.9 °F /  3.3 °C 24.4 °F /  -4.2 °C 29.64 in /  1003.6 hPa SW 2.8 mph /  4.5 km/h 11.5 mph /  18.5 km/h 58 % 0.00 in /  0 mm
16:54 37.9 °F /  3.3 °C 24.8 °F /  -4 °C 29.65 in /  1003.9 hPa West 5.9 mph /  9.5 km/h 11.5 mph /  18.5 km/h 59 % 0.00 in /  0 mm
16:59 37.8 °F /  3.2 °C 24.7 °F /  -4.1 °C 29.65 in /  1003.9 hPa West 6.3 mph /  10.1 km/h 9.2 mph /  14.8 km/h 59 % 0.00 in /  0 mm
17:00 37.8 °F /  3.2 °C 24.7 °F /  -4.1 °C 29.65 in /  1003.9 hPa West 8.0 mph /  12.9 km/h 12.7 mph /  20.4 km/h 59 % 0.00 in /  0 mm
17:05 37.8 °F /  3.2 °C 24.3 °F /  -4.3 °C 29.65 in /  1003.9 hPa West 10.4 mph /  16.7 km/h 14.0 mph /  22.5 km/h 58 % 0.00 in /  0 mm
17:10 37.7 °F /  3.2 °C 24.6 °F /  -4.1 °C 29.65 in /  1003.9 hPa WSW 4.9 mph /  7.9 km/h 8.1 mph /  13 km/h 59 % 0.00 in /  0 mm
17:15 37.7 °F /  3.2 °C 24.6 °F /  -4.1 °C 29.65 in /  1003.9 hPa SW 4.0 mph /  6.4 km/h 5.8 mph /  9.3 km/h 59 % 0.00 in /  0 mm
17:20 37.6 °F /  3.1 °C 25.0 °F /  -3.9 °C 29.65 in /  1003.9 hPa WNW 6.8 mph /  10.9 km/h 12.7 mph /  20.4 km/h 60 % 0.00 in /  0 mm
17:25 37.6 °F /  3.1 °C 25.0 °F /  -3.9 °C 29.65 in /  1003.9 hPa WSW 7.4 mph /  11.9 km/h 12.7 mph /  20.4 km/h 60 % 0.00 in /  0 mm
17:30 37.6 °F /  3.1 °C 25.0 °F /  -3.9 °C 29.65 in /  1003.9 hPa WSW 4.3 mph /  6.9 km/h 10.4 mph /  16.7 km/h 60 % 0.00 in /  0 mm
17:35 37.5 °F /  3.1 °C 24.9 °F /  -3.9 °C 29.66 in /  1004.3 hPa West 5.1 mph /  8.2 km/h 11.5 mph /  18.5 km/h 60 % 0.00 in /  0 mm
17:40 37.5 °F /  3.1 °C 24.9 °F /  -3.9 °C 29.66 in /  1004.3 hPa WSW 8.3 mph /  13.4 km/h 13.0 mph /  20.9 km/h 60 % 0.00 in /  0 mm
17:45 37.5 °F /  3.1 °C 24.9 °F /  -3.9 °C 29.66 in /  1004.3 hPa West 6.3 mph /  10.1 km/h 15.0 mph /  24.1 km/h 60 % 0.00 in /  0 mm
17:50 37.4 °F /  3 °C 24.8 °F /  -4 °C 29.66 in /  1004.3 hPa West 4.6 mph /  7.4 km/h 10.4 mph /  16.7 km/h 60 % 0.00 in /  0 mm
17:55 37.4 °F /  3 °C 24.4 °F /  -4.2 °C 29.66 in /  1004.3 hPa WNW 9.0 mph /  14.5 km/h 12.7 mph /  20.4 km/h 59 % 0.00 in /  0 mm
18:00 37.4 °F /  3 °C 24.4 °F /  -4.2 °C 29.67 in /  1004.6 hPa West 6.3 mph /  10.1 km/h 8.1 mph /  13 km/h 59 % 0.00 in /  0 mm
18:05 37.3 °F /  2.9 °C 24.7 °F /  -4.1 °C 29.67 in /  1004.6 hPa WNW 3.8 mph /  6.1 km/h 9.2 mph /  14.8 km/h 60 % 0.00 in /  0 mm
18:10 37.3 °F /  2.9 °C 24.7 °F /  -4.1 °C 29.67 in /  1004.6 hPa WSW 5.9 mph /  9.5 km/h 10.4 mph /  16.7 km/h 60 % 0.00 in /  0 mm
18:16 37.3 °F /  2.9 °C 24.3 °F /  -4.3 °C 29.67 in /  1004.6 hPa West 4.0 mph /  6.4 km/h 8.1 mph /  13 km/h 59 % 0.00 in /  0 mm
18:20 37.2 °F /  2.9 °C 23.8 °F /  -4.6 °C 29.67 in /  1004.6 hPa WSW 5.6 mph /  9 km/h 10.4 mph /  16.7 km/h 58 % 0.00 in /  0 mm
18:26 37.2 °F /  2.9 °C 24.2 °F /  -4.3 °C 29.67 in /  1004.6 hPa WNW 4.2 mph /  6.8 km/h 10.4 mph /  16.7 km/h 59 % 0.00 in /  0 mm
18:31 37.1 °F /  2.8 °C 24.1 °F /  -4.4 °C 29.68 in /  1005 hPa WNW 3.6 mph /  5.8 km/h 11.5 mph /  18.5 km/h 59 % 0.00 in /  0 mm
18:36 37.1 °F /  2.8 °C 24.1 °F /  -4.4 °C 29.68 in /  1005 hPa WSW 5.2 mph /  8.4 km/h 11.5 mph /  18.5 km/h 59 % 0.00 in /  0 mm
18:41 37.1 °F /  2.8 °C 24.5 °F /  -4.2 °C 29.68 in /  1005 hPa SW 6.9 mph /  11.1 km/h 11.5 mph /  18.5 km/h 60 % 0.00 in /  0 mm
18:46 37.0 °F /  2.8 °C 24.4 °F /  -4.2 °C 29.68 in /  1005 hPa West 6.7 mph /  10.8 km/h 11.5 mph /  18.5 km/h 60 % 0.00 in /  0 mm
18:51 37.0 °F /  2.8 °C 24.4 °F /  -4.2 °C 29.69 in /  1005.3 hPa West 6.3 mph /  10.1 km/h 11.5 mph /  18.5 km/h 60 % 0.00 in /  0 mm
18:56 36.9 °F /  2.7 °C 24.3 °F /  -4.3 °C 29.69 in /  1005.3 hPa WNW 6.0 mph /  9.7 km/h 11.5 mph /  18.5 km/h 60 % 0.00 in /  0 mm
19:01 36.8 °F /  2.7 °C 24.6 °F /  -4.1 °C 29.69 in /  1005.3 hPa WSW 5.9 mph /  9.5 km/h 10.4 mph /  16.7 km/h 61 % 0.00 in /  0 mm
19:06 36.6 °F /  2.6 °C 24.4 °F /  -4.2 °C 29.69 in /  1005.3 hPa WSW 4.6 mph /  7.4 km/h 11.5 mph /  18.5 km/h 61 % 0.00 in /  0 mm
19:11 36.5 °F /  2.5 °C 24.7 °F /  -4.1 °C 29.69 in /  1005.3 hPa West 4.2 mph /  6.8 km/h 8.1 mph /  13 km/h 62 % 0.00 in /  0 mm
19:16 36.4 °F /  2.4 °C 24.6 °F /  -4.1 °C 29.69 in /  1005.3 hPa West 6.9 mph /  11.1 km/h 10.4 mph /  16.7 km/h 62 % 0.00 in /  0 mm
19:21 36.4 °F /  2.4 °C 24.6 °F /  -4.1 °C 29.69 in /  1005.3 hPa WSW 5.5 mph /  8.9 km/h 7.0 mph /  11.3 km/h 62 % 0.00 in /  0 mm
19:26 36.4 °F /  2.4 °C 24.6 °F /  -4.1 °C 29.69 in /  1005.3 hPa NNW 4.9 mph /  7.9 km/h 11.0 mph /  17.7 km/h 62 % 0.00 in /  0 mm
19:31 36.4 °F /  2.4 °C 25.0 °F /  -3.9 °C 29.69 in /  1005.3 hPa WSW 2.8 mph /  4.5 km/h 6.9 mph /  11.1 km/h 63 % 0.00 in /  0 mm
19:36 36.4 °F /  2.4 °C 25.0 °F /  -3.9 °C 29.70 in /  1005.6 hPa WSW 5.5 mph /  8.9 km/h 9.2 mph /  14.8 km/h 63 % 0.00 in /  0 mm
19:41 36.5 °F /  2.5 °C 24.7 °F /  -4.1 °C 29.70 in /  1005.6 hPa West 4.2 mph /  6.8 km/h 6.9 mph /  11.1 km/h 62 % 0.00 in /  0 mm
19:46 36.6 °F /  2.6 °C 24.8 °F /  -4 °C 29.70 in /  1005.6 hPa West 2.9 mph /  4.7 km/h 3.5 mph /  5.6 km/h 62 % 0.00 in /  0 mm
19:51 36.6 °F /  2.6 °C 25.2 °F /  -3.8 °C 29.71 in /  1006 hPa West 1.2 mph /  1.9 km/h 5.8 mph /  9.3 km/h 63 % 0.00 in /  0 mm
19:56 36.6 °F /  2.6 °C 25.6 °F /  -3.6 °C 29.71 in /  1006 hPa WNW 3.5 mph /  5.6 km/h 6.9 mph /  11.1 km/h 64 % 0.00 in /  0 mm
20:01 36.6 °F /  2.6 °C 25.6 °F /  -3.6 °C 29.71 in /  1006 hPa SW 3.8 mph /  6.1 km/h 6.0 mph /  9.7 km/h 64 % 0.00 in /  0 mm
20:07 36.5 °F /  2.5 °C 25.8 °F /  -3.4 °C 29.71 in /  1006 hPa WSW 2.2 mph /  3.5 km/h 6.9 mph /  11.1 km/h 65 % 0.00 in /  0 mm
20:12 36.6 °F /  2.6 °C 25.9 °F /  -3.4 °C 29.70 in /  1005.6 hPa SSW 6.0 mph /  9.7 km/h 8.1 mph /  13 km/h 65 % 0.00 in /  0 mm
20:17 36.6 °F /  2.6 °C 25.6 °F /  -3.6 °C 29.70 in /  1005.6 hPa WSW 4.6 mph /  7.4 km/h 9.0 mph /  14.5 km/h 64 % 0.00 in /  0 mm
20:22 36.7 °F /  2.6 °C 25.7 °F /  -3.5 °C 29.70 in /  1005.6 hPa NW 5.9 mph /  9.5 km/h 9.2 mph /  14.8 km/h 64 % 0.00 in /  0 mm
20:27 36.8 °F /  2.7 °C 25.8 °F /  -3.4 °C 29.71 in /  1006 hPa West 1.4 mph /  2.3 km/h 6.9 mph /  11.1 km/h 64 % 0.00 in /  0 mm
20:32 36.8 °F /  2.7 °C 25.8 °F /  -3.4 °C 29.71 in /  1006 hPa West 4.0 mph /  6.4 km/h 10.4 mph /  16.7 km/h 64 % 0.00 in /  0 mm
20:37 36.8 °F /  2.7 °C 26.1 °F /  -3.3 °C 29.71 in /  1006 hPa WSW 3.8 mph /  6.1 km/h 9.2 mph /  14.8 km/h 65 % 0.00 in /  0 mm
20:42 36.8 °F /  2.7 °C 25.8 °F /  -3.4 °C 29.71 in /  1006 hPa WSW 5.8 mph /  9.3 km/h 9.0 mph /  14.5 km/h 64 % 0.00 in /  0 mm
20:47 36.8 °F /  2.7 °C 26.1 °F /  -3.3 °C 29.71 in /  1006 hPa SW 3.0 mph /  4.8 km/h 8.0 mph /  12.9 km/h 65 % 0.00 in /  0 mm
20:52 36.9 °F /  2.7 °C 26.2 °F /  -3.2 °C 29.71 in /  1006 hPa WNW 5.2 mph /  8.4 km/h 9.0 mph /  14.5 km/h 65 % 0.00 in /  0 mm
20:57 37.0 °F /  2.8 °C 26.3 °F /  -3.2 °C 29.71 in /  1006 hPa SW 6.5 mph /  10.5 km/h 9.0 mph /  14.5 km/h 65 % 0.00 in /  0 mm
21:02 37.0 °F /  2.8 °C 26.3 °F /  -3.2 °C 29.71 in /  1006 hPa SW 6.7 mph /  10.8 km/h 14.0 mph /  22.5 km/h 65 % 0.00 in /  0 mm
21:07 37.0 °F /  2.8 °C 26.3 °F /  -3.2 °C 29.71 in /  1006 hPa WSW 3.6 mph /  5.8 km/h 5.8 mph /  9.3 km/h 65 % 0.00 in /  0 mm
21:12 37.0 °F /  2.8 °C 25.9 °F /  -3.4 °C 29.71 in /  1006 hPa West 9.2 mph /  14.8 km/h 13.8 mph /  22.2 km/h 64 % 0.00 in /  0 mm
21:17 37.0 °F /  2.8 °C 25.2 °F /  -3.8 °C 29.71 in /  1006 hPa WSW 3.6 mph /  5.8 km/h 6.9 mph /  11.1 km/h 62 % 0.00 in /  0 mm
21:22 37.0 °F /  2.8 °C 25.2 °F /  -3.8 °C 29.71 in /  1006 hPa SW 7.4 mph /  11.9 km/h 11.5 mph /  18.5 km/h 62 % 0.00 in /  0 mm
21:27 36.9 °F /  2.7 °C 25.1 °F /  -3.8 °C 29.71 in /  1006 hPa West 4.6 mph /  7.4 km/h 11.5 mph /  18.5 km/h 62 % 0.00 in /  0 mm
21:32 36.9 °F /  2.7 °C 25.1 °F /  -3.8 °C 29.71 in /  1006 hPa West 2.4 mph /  3.9 km/h 11.5 mph /  18.5 km/h 62 % 0.00 in /  0 mm
21:38 36.8 °F /  2.7 °C 25.4 °F /  -3.7 °C 29.71 in /  1006 hPa West 2.8 mph /  4.5 km/h 12.7 mph /  20.4 km/h 63 % 0.00 in /  0 mm
21:43 36.8 °F /  2.7 °C 25.8 °F /  -3.4 °C 29.71 in /  1006 hPa WSW 4.7 mph /  7.6 km/h 8.1 mph /  13 km/h 64 % 0.00 in /  0 mm
21:48 36.7 °F /  2.6 °C 25.7 °F /  -3.5 °C 29.71 in /  1006 hPa West 3.8 mph /  6.1 km/h 10.4 mph /  16.7 km/h 64 % 0.00 in /  0 mm
21:53 36.6 °F /  2.6 °C 25.9 °F /  -3.4 °C 29.71 in /  1006 hPa WSW 0.3 mph /  0.5 km/h 4.6 mph /  7.4 km/h 65 % 0.00 in /  0 mm
21:58 36.6 °F /  2.6 °C 25.9 °F /  -3.4 °C 29.71 in /  1006 hPa West 2.5 mph /  4 km/h 5.8 mph /  9.3 km/h 65 % 0.00 in /  0 mm
22:03 36.5 °F /  2.5 °C 26.2 °F /  -3.2 °C 29.71 in /  1006 hPa South 3.6 mph /  5.8 km/h 6.9 mph /  11.1 km/h 66 % 0.00 in /  0 mm
22:08 36.4 °F /  2.4 °C 26.1 °F /  -3.3 °C 29.71 in /  1006 hPa SW 2.6 mph /  4.2 km/h 4.6 mph /  7.4 km/h 66 % 0.00 in /  0 mm
22:13 36.3 °F /  2.4 °C 26.0 °F /  -3.3 °C 29.71 in /  1006 hPa WNW 4.7 mph /  7.6 km/h 8.1 mph /  13 km/h 66 % 0.00 in /  0 mm
22:18 36.2 °F /  2.3 °C 25.6 °F /  -3.6 °C 29.71 in /  1006 hPa West 4.7 mph /  7.6 km/h 5.8 mph /  9.3 km/h 65 % 0.00 in /  0 mm
22:23 36.2 °F /  2.3 °C 25.6 °F /  -3.6 °C 29.71 in /  1006 hPa West 3.5 mph /  5.6 km/h 6.9 mph /  11.1 km/h 65 % 0.00 in /  0 mm
22:28 36.2 °F /  2.3 °C 25.6 °F /  -3.6 °C 29.70 in /  1005.6 hPa SW 3.3 mph /  5.3 km/h 6.9 mph /  11.1 km/h 65 % 0.00 in /  0 mm
22:33 36.1 °F /  2.3 °C 25.8 °F /  -3.4 °C 29.71 in /  1006 hPa SW 3.0 mph /  4.8 km/h 6.9 mph /  11.1 km/h 66 % 0.00 in /  0 mm
22:38 36.1 °F /  2.3 °C 25.8 °F /  -3.4 °C 29.70 in /  1005.6 hPa West 1.2 mph /  1.9 km/h 2.3 mph /  3.7 km/h 66 % 0.00 in /  0 mm
22:43 36.1 °F /  2.3 °C 26.2 °F /  -3.2 °C 29.71 in /  1006 hPa SW 2.5 mph /  4 km/h 4.6 mph /  7.4 km/h 67 % 0.00 in /  0 mm
22:48 36.0 °F /  2.2 °C 26.1 °F /  -3.3 °C 29.70 in /  1005.6 hPa WSW 2.9 mph /  4.7 km/h 4.6 mph /  7.4 km/h 67 % 0.00 in /  0 mm
22:53 35.9 °F /  2.2 °C 26.0 °F /  -3.3 °C 29.70 in /  1005.6 hPa WSW 0.5 mph /  0.8 km/h 2.3 mph /  3.7 km/h 67 % 0.00 in /  0 mm
22:58 35.9 °F /  2.2 °C 26.0 °F /  -3.3 °C 29.70 in /  1005.6 hPa WSW 2.0 mph /  3.2 km/h 3.5 mph /  5.6 km/h 67 % 0.00 in /  0 mm
23:03 35.8 °F /  2.1 °C 25.5 °F /  -3.6 °C 29.70 in /  1005.6 hPa WSW 1.0 mph /  1.6 km/h 2.3 mph /  3.7 km/h 66 % 0.00 in /  0 mm
23:08 35.7 °F /  2.1 °C 25.8 °F /  -3.4 °C 29.71 in /  1006 hPa WSW 1.1 mph /  1.8 km/h 2.0 mph /  3.2 km/h 67 % 0.00 in /  0 mm
23:13 35.5 °F /  1.9 °C 25.6 °F /  -3.6 °C 29.71 in /  1006 hPa WSW 1.6 mph /  2.6 km/h 3.5 mph /  5.6 km/h 67 % 0.00 in /  0 mm
23:19 35.3 °F /  1.8 °C 25.4 °F /  -3.7 °C 29.71 in /  1006 hPa Calm   3.0 mph /  4.8 km/h 67 % 0.00 in /  0 mm
23:24 35.2 °F /  1.8 °C 25.3 °F /  -3.7 °C 29.71 in /  1006 hPa WSW 1.0 mph /  1.6 km/h 3.0 mph /  4.8 km/h 67 % 0.00 in /  0 mm
23:29 35.0 °F /  1.7 °C 25.2 °F /  -3.8 °C 29.71 in /  1006 hPa SW 3.0 mph /  4.8 km/h 5.0 mph /  8 km/h 67 % 0.00 in /  0 mm
23:34 34.9 °F /  1.6 °C 25.0 °F /  -3.9 °C 29.71 in /  1006 hPa SW 3.2 mph /  5.1 km/h 3.5 mph /  5.6 km/h 67 % 0.00 in /  0 mm
23:39 34.8 °F /  1.6 °C 25.0 °F /  -3.9 °C 29.71 in /  1006 hPa SW 1.0 mph /  1.6 km/h 5.0 mph /  8 km/h 67 % 0.00 in /  0 mm
23:44 34.8 °F /  1.6 °C 24.9 °F /  -3.9 °C 29.71 in /  1006 hPa SW 1.0 mph /  1.6 km/h 4.0 mph /  6.4 km/h 67 % 0.00 in /  0 mm
23:49 34.7 °F /  1.5 °C 24.9 °F /  -3.9 °C 29.71 in /  1006 hPa SW 1.3 mph /  2.1 km/h 3.5 mph /  5.6 km/h 67 % 0.00 in /  0 mm
23:54 34.7 °F /  1.5 °C 24.9 °F /  -3.9 °C 29.71 in /  1006 hPa SW 1.0 mph /  1.6 km/h 4.0 mph /  6.4 km/h 67 % 0.00 in /  0 mm
23:59 34.6 °F /  1.4 °C 24.8 °F /  -4 °C 29.70 in /  1005.6 hPa SW 0.6 mph /  1 km/h 3.5 mph /  5.6 km/h 67 % 0.00 in /  0 mm
Crab Meadow Weather
Compliments of Weather Underground - 3 mb

Script developed by  Jim McMurry - jmcmurry@mwt.net Adapted for the template by  Wim van der Kuil - Leuven-Template.eu

Astronomy: The rings of Saturn are made of ice and rock.